createdAt,value
2019-03-18T00:01:44.236Z,1.30
2019-03-18T00:04:13.083Z,1.30
2019-03-18T00:06:41.861Z,1.30
2019-03-18T00:09:10.717Z,1.30
2019-03-18T00:11:39.324Z,1.30
2019-03-18T00:14:08.084Z,1.30
2019-03-18T00:16:36.700Z,1.30
2019-03-18T00:19:06.329Z,1.30
2019-03-18T00:21:36.323Z,1.30
2019-03-18T00:24:05.150Z,1.30
2019-03-18T00:26:33.883Z,1.40
2019-03-18T00:29:03.591Z,1.30
2019-03-18T00:34:08.791Z,1.40
2019-03-18T00:36:37.516Z,1.40
2019-03-18T00:39:08.053Z,1.40
2019-03-18T00:41:36.765Z,1.40
2019-03-18T00:44:05.575Z,1.40
2019-03-18T00:46:34.336Z,1.40
2019-03-18T00:49:02.978Z,1.40
2019-03-18T00:51:32.380Z,1.40
2019-03-18T00:54:01.043Z,1.50
2019-03-18T00:56:35.787Z,1.50
2019-03-18T00:59:04.365Z,1.50
2019-03-18T01:09:49.773Z,1.50
2019-03-18T01:26:24.077Z,1.50
2019-03-18T01:32:01.695Z,1.60
2019-03-18T01:34:30.361Z,1.60
2019-03-18T01:48:02.590Z,1.70
2019-03-18T01:58:39.581Z,1.70
2019-03-18T02:23:42.385Z,1.80
2019-03-18T02:45:24.604Z,1.70
2019-03-18T03:05:14.665Z,1.70
2019-03-18T03:07:43.501Z,1.60
2019-03-18T03:12:58.084Z,1.60
2019-03-18T03:15:26.843Z,1.60
2019-03-18T03:17:55.641Z,1.60
2019-03-18T03:20:24.402Z,1.60
2019-03-18T03:22:53.219Z,1.60
2019-03-18T03:25:24.815Z,1.50
2019-03-18T03:27:52.887Z,1.50
2019-03-18T03:30:21.720Z,1.50
2019-03-18T03:38:24.164Z,1.50
2019-03-18T04:06:02.058Z,1.50
2019-03-18T04:08:33.490Z,1.50
2019-03-18T04:33:09.698Z,1.40
2019-03-18T04:35:38.613Z,1.30
2019-03-18T04:44:24.307Z,1.30
2019-03-18T04:46:53.002Z,1.40
2019-03-18T04:49:21.831Z,1.40
2019-03-18T04:51:50.625Z,1.50
2019-03-18T04:54:23.500Z,1.50
2019-03-18T05:57:25.795Z,1.70
2019-03-18T06:03:01.516Z,1.80
2019-03-18T06:16:33.215Z,1.60
2019-03-18T06:19:23.244Z,1.50
2019-03-18T06:21:52.528Z,1.40
2019-03-18T06:24:22.790Z,1.40
2019-03-18T06:26:51.796Z,1.30
2019-03-18T06:29:20.731Z,1.40
2019-03-18T07:38:46.594Z,2.40
2019-03-18T08:23:27.724Z,4.50
2019-03-18T08:53:12.509Z,5.20
2019-03-18T08:55:43.101Z,5.50
2019-03-18T08:58:11.871Z,5.60
2019-03-18T09:00:40.664Z,5.80
2019-03-18T09:03:09.481Z,5.70
2019-03-18T09:05:38.289Z,5.80
2019-03-18T09:16:27.261Z,5.80
2019-03-18T09:19:07.774Z,6.10
2019-03-18T09:21:26.345Z,6.50
2019-03-18T09:23:55.188Z,6.20
2019-03-18T09:29:23.316Z,6.10
2019-03-18T09:31:53.876Z,5.80
2019-03-18T09:34:22.628Z,5.60
2019-03-18T09:36:51.630Z,5.20
2019-03-18T09:39:20.512Z,5.20
2019-03-18T09:41:52.031Z,5.30
2019-03-18T09:52:56.564Z,5.60
2019-03-18T09:55:25.355Z,6.60
2019-03-18T09:57:54.377Z,7.50
2019-03-18T10:00:23.259Z,7.90
2019-03-18T10:02:52.066Z,7.90
2019-03-18T10:05:20.791Z,7.50
2019-03-18T10:07:49.604Z,7.20
2019-03-18T10:10:18.402Z,6.80
2019-03-18T10:12:47.342Z,6.80
2019-03-18T10:15:18.646Z,7.10
2019-03-18T10:17:47.345Z,7.10
2019-03-18T10:20:16.081Z,6.70
2019-03-18T10:22:44.985Z,6.20
2019-03-18T10:25:13.784Z,5.90
2019-03-18T11:07:42.449Z,4.90
2019-03-18T11:13:01.274Z,5.80
2019-03-18T11:15:30.098Z,6.00
2019-03-18T11:17:58.807Z,6.20
2019-03-18T11:20:27.545Z,6.10
2019-03-18T11:22:56.303Z,5.90
2019-03-18T11:25:25.092Z,5.70
2019-03-18T11:36:11.294Z,4.60
2019-03-18T11:38:40.145Z,4.80
2019-03-18T11:41:08.870Z,5.10
2019-03-18T11:49:19.815Z,5.90
2019-03-18T11:51:48.756Z,5.70
2019-03-18T11:54:20.172Z,5.70
2019-03-18T11:56:48.990Z,5.90
2019-03-18T11:59:20.737Z,6.20
2019-03-18T12:04:24.331Z,5.60
2019-03-18T12:06:53.098Z,5.00
2019-03-18T12:09:43.516Z,4.60
2019-03-18T12:12:22.107Z,4.20
2019-03-18T12:14:51.046Z,3.80
2019-03-18T12:17:19.840Z,3.60
2019-03-18T12:19:48.668Z,3.90
2019-03-18T12:22:17.345Z,5.10
2019-03-18T12:24:50.469Z,6.60
2019-03-18T12:33:45.777Z,8.80
2019-03-18T12:36:14.696Z,7.80
2019-03-18T12:38:43.505Z,7.50
2019-03-18T12:41:12.312Z,7.30
2019-03-18T12:43:41.166Z,7.00
2019-03-18T12:46:09.834Z,6.30
2019-03-18T12:48:38.559Z,5.80
2019-03-18T12:51:09.115Z,5.50
2019-03-18T12:53:37.749Z,5.40
2019-03-18T12:56:06.599Z,5.40
2019-03-18T12:58:35.440Z,6.60
2019-03-18T13:01:12.577Z,8.10
2019-03-18T13:03:34.547Z,9.40
2019-03-18T13:06:03.433Z,9.60
2019-03-18T13:08:32.243Z,10.00
2019-03-18T13:11:38.038Z,10.70
2019-03-18T13:14:07.361Z,11.20
2019-03-18T13:16:38.367Z,10.00
2019-03-18T13:19:07.033Z,9.50
2019-03-18T13:21:35.835Z,8.70
2019-03-18T13:24:04.642Z,8.70
2019-03-18T13:26:33.415Z,8.40
2019-03-18T13:29:02.094Z,7.80
2019-03-18T13:31:30.819Z,7.00
2019-03-18T13:33:59.607Z,6.60
2019-03-18T13:36:28.552Z,6.30
2019-03-18T13:38:57.366Z,6.00
2019-03-18T13:41:26.114Z,6.10
2019-03-18T13:43:54.924Z,6.00
2019-03-18T13:46:23.843Z,5.90
2019-03-18T13:54:14.513Z,3.60
2019-03-18T13:56:46.403Z,2.60
2019-03-18T13:59:15.242Z,2.10
2019-03-18T14:01:45.557Z,1.80
2019-03-18T14:04:18.512Z,1.70
2019-03-18T14:06:57.339Z,1.60
2019-03-18T14:09:26.227Z,1.60
2019-03-18T14:11:55.530Z,1.70
2019-03-18T14:14:24.316Z,1.80
2019-03-18T14:23:21.193Z,3.30
2019-03-18T14:25:51.000Z,3.40
2019-03-18T14:37:12.230Z,3.20
2019-03-18T14:39:41.009Z,3.20
2019-03-18T14:42:09.805Z,2.70
2019-03-18T14:44:52.046Z,2.40
2019-03-18T14:47:21.009Z,2.10
2019-03-18T14:55:20.198Z,1.70
2019-03-18T14:57:49.348Z,1.90
2019-03-18T15:00:30.706Z,2.10
2019-03-18T15:02:59.489Z,2.30
2019-03-18T15:05:28.688Z,2.50
2019-03-18T15:07:59.052Z,2.60
2019-03-18T15:13:09.052Z,2.60
2019-03-18T15:15:37.920Z,2.60
2019-03-18T15:20:55.453Z,2.40
2019-03-18T15:25:57.951Z,2.30
2019-03-18T15:33:58.996Z,2.70
2019-03-18T15:36:27.757Z,2.80
2019-03-18T15:42:00.111Z,2.80
2019-03-18T16:15:40.123Z,3.70
2019-03-18T16:18:09.709Z,3.60
2019-03-18T16:39:50.052Z,3.40
2019-03-18T16:42:19.045Z,3.30
2019-03-18T16:44:47.732Z,3.20
2019-03-18T16:47:16.456Z,3.20
2019-03-18T17:39:00.749Z,1.70
2019-03-18T17:52:33.168Z,1.90
2019-03-18T17:57:36.330Z,1.80
2019-03-18T18:00:11.553Z,1.70
2019-03-18T18:02:40.671Z,1.60
2019-03-18T18:07:55.034Z,1.50
2019-03-18T18:10:23.870Z,1.50
2019-03-18T18:12:52.639Z,1.50
2019-03-18T18:18:08.011Z,1.40
2019-03-18T18:23:29.400Z,1.40
2019-03-18T18:25:58.211Z,1.40
2019-03-18T18:28:28.537Z,1.40
2019-03-18T18:37:29.109Z,1.40
2019-03-18T18:39:58.279Z,1.40
2019-03-18T18:42:27.170Z,1.40
2019-03-18T18:44:55.665Z,1.40
2019-03-18T18:47:24.501Z,1.30
2019-03-18T18:49:53.152Z,1.30
2019-03-18T19:16:42.601Z,1.40
2019-03-18T19:19:11.565Z,1.30
2019-03-18T19:32:50.935Z,1.60
2019-03-18T19:35:19.963Z,1.60
2019-03-18T19:37:48.819Z,1.60
2019-03-18T19:40:19.072Z,1.60
2019-03-18T19:45:44.129Z,1.70
2019-03-18T19:56:58.379Z,1.90
2019-03-18T19:59:27.044Z,1.90
2019-03-18T20:01:55.838Z,1.90
2019-03-18T20:12:39.214Z,1.90
2019-03-18T20:15:16.221Z,1.90
2019-03-18T20:17:45.109Z,1.90
2019-03-18T20:20:15.164Z,1.90
2019-03-18T20:22:44.173Z,1.90
2019-03-18T20:25:13.951Z,1.80
2019-03-18T20:27:42.833Z,1.90
2019-03-18T20:30:21.680Z,1.90
2019-03-18T20:32:50.488Z,1.80
2019-03-18T20:35:23.197Z,1.80
2019-03-18T20:37:52.485Z,1.80
2019-03-18T20:40:21.954Z,1.80
2019-03-18T20:42:50.723Z,1.80
2019-03-18T20:45:26.048Z,1.80
2019-03-18T20:47:54.918Z,1.80
2019-03-18T20:50:24.297Z,1.80
2019-03-18T20:52:53.178Z,1.80
2019-03-18T20:55:21.983Z,1.80
2019-03-18T20:57:50.760Z,1.80
2019-03-18T21:00:24.197Z,1.80
2019-03-18T21:02:53.199Z,1.80
2019-03-18T21:05:24.788Z,1.80
2019-03-18T21:07:52.485Z,1.80
2019-03-18T21:10:21.556Z,1.80
2019-03-18T21:12:50.344Z,1.80
2019-03-18T21:15:19.305Z,1.80
2019-03-18T21:17:48.295Z,1.80
2019-03-18T21:20:22.156Z,1.80
2019-03-18T21:22:51.089Z,1.80
2019-03-18T21:25:20.074Z,1.70
2019-03-18T21:27:48.875Z,1.70
2019-03-18T21:30:19.987Z,1.60
2019-03-18T21:32:48.928Z,1.60
2019-03-18T21:35:17.968Z,1.50
2019-03-18T21:37:46.893Z,1.50
2019-03-18T21:40:17.629Z,1.40
2019-03-18T21:42:46.300Z,1.30
2019-03-18T21:45:20.027Z,1.20
2019-03-18T21:47:48.913Z,1.20
2019-03-18T21:50:18.039Z,1.10
2019-03-18T21:52:46.941Z,1.10
2019-03-18T21:55:16.582Z,1.10
2019-03-18T21:57:45.764Z,1.10
2019-03-18T22:00:19.189Z,1.00
2019-03-18T22:02:48.108Z,1.00
2019-03-18T22:05:16.911Z,0.90
2019-03-18T22:07:45.689Z,0.90
2019-03-18T22:10:18.255Z,1.00
2019-03-18T22:12:47.431Z,1.00
2019-03-18T22:15:16.903Z,1.10
2019-03-18T22:17:45.678Z,1.20
2019-03-18T22:20:16.929Z,1.20
2019-03-18T22:22:45.843Z,1.30
2019-03-18T22:25:15.703Z,1.30
2019-03-18T22:27:44.630Z,1.30
2019-03-18T22:30:17.220Z,1.20
2019-03-18T22:32:45.966Z,1.20
2019-03-18T22:35:14.919Z,1.10
2019-03-18T22:37:43.570Z,1.10
2019-03-18T22:40:16.176Z,1.10
2019-03-18T22:42:44.757Z,1.00
2019-03-18T22:45:33.799Z,1.00
2019-03-18T22:48:02.498Z,1.00
2019-03-18T22:50:31.382Z,1.00
2019-03-18T22:53:00.140Z,0.90
2019-03-18T22:55:28.698Z,0.90
2019-03-18T22:57:57.376Z,0.90
2019-03-18T23:00:36.662Z,0.90
2019-03-18T23:03:05.693Z,0.90
2019-03-18T23:05:34.458Z,0.90
2019-03-18T23:08:03.497Z,0.80
2019-03-18T23:10:32.992Z,0.90
2019-03-18T23:13:01.750Z,0.80
2019-03-18T23:15:30.501Z,0.80
2019-03-18T23:17:59.228Z,0.70
2019-03-18T23:20:28.001Z,0.70
2019-03-18T23:22:56.798Z,0.70
2019-03-18T23:25:25.726Z,0.60
2019-03-18T23:27:54.509Z,0.60
2019-03-18T23:30:23.382Z,0.60
2019-03-18T23:32:52.090Z,0.60
2019-03-18T23:35:20.903Z,0.50
2019-03-18T23:37:49.670Z,0.60
2019-03-18T23:40:18.548Z,0.60
2019-03-18T23:42:47.416Z,0.50
2019-03-18T23:45:16.286Z,0.40
2019-03-18T23:47:45.062Z,0.30
2019-03-18T23:50:14.824Z,0.30
2019-03-18T23:52:43.490Z,0.30
2019-03-18T23:55:18.947Z,0.40
2019-03-18T23:57:42.790Z,0.40
